Time;durP1;ratioP1;P1;durP2;ratioP2;P2;SDS_P1;SDS_P2;PMS_P1;PMS_P2;Temp;Humidity;BMP_temperature;BMP_pressure;BME280_temperature;BME280_humidity;BME280_pressure;Samples;Min_cycle;Max_cycle;Signal;HPM_P1;HPM_P2
2021/11/02 00:02:24;;;;;;;3.70;0.73;;;;;;;6.28;100.00;97882.28;5071799;28;20038;-51
2021/11/02 00:05:27;;;;;;;1.95;1.55;;;;;;;6.30;100.00;97882.56;5072327;28;20047;-52
2021/11/02 00:08:30;;;;;;;0.60;0.47;;;;;;;6.32;100.00;97887.59;5072053;28;20047;-51
2021/11/02 00:11:35;;;;;;;1.77;0.93;;;;;;;6.27;100.00;97885.56;5061365;28;20035;-52
2021/11/02 00:14:38;;;;;;;0.32;0.30;;;;;;;6.29;100.00;97888.56;5072547;28;20761;-52
2021/11/02 00:17:41;;;;;;;0.43;0.43;;;;;;;6.41;100.00;97890.91;5073945;28;20790;-51
2021/11/02 00:20:44;;;;;;;0.52;0.52;;;;;;;6.45;100.00;97879.63;5078458;27;20477;-51
2021/11/02 00:23:56;;;;;;;0.13;0.13;;;;;;;6.49;100.00;97880.16;5092947;27;20484;-52
2021/11/02 00:26:59;;;;;;;0.32;0.30;;;;;;;6.52;100.00;97873.63;5093643;27;20042;-52
2021/11/02 00:30:05;;;;;;;4.63;0.88;;;;;;;6.57;100.00;97883.94;5093768;27;20367;-51
2021/11/02 00:33:08;;;;;;;0.30;0.30;;;;;;;6.62;100.00;97888.75;5093928;27;20049;-52
2021/11/02 00:36:11;;;;;;;0.60;0.60;;;;;;;6.67;100.00;97882.50;5093341;27;20103;-52
2021/11/02 00:39:14;;;;;;;0.47;0.47;;;;;;;6.71;100.00;97880.97;5095149;27;20437;-51
2021/11/02 00:42:17;;;;;;;7.05;0.80;;;;;;;6.74;100.00;97884.75;5095187;27;20422;-51
2021/11/02 00:45:37;;;;;;;0.30;0.30;;;;;;;6.79;100.00;97886.81;5093432;27;20118;-52
2021/11/02 00:48:40;;;;;;;2.15;0.80;;;;;;;6.82;100.00;97891.34;5092934;27;20042;-51
2021/11/02 00:51:46;;;;;;;2.00;0.77;;;;;;;6.82;100.00;97897.63;5093302;27;20445;-52
2021/11/02 00:54:49;;;;;;;0.35;0.35;;;;;;;6.82;100.00;97888.59;5096253;27;20215;-52
2021/11/02 00:57:52;;;;;;;0.50;0.30;;;;;;;6.88;100.00;97897.66;5096559;27;20034;-52
2021/11/02 01:00:55;;;;;;;0.30;0.30;;;;;;;6.95;100.00;97897.19;5092631;27;20057;-52
2021/11/02 01:03:59;;;;;;;0.75;0.75;;;;;;;7.12;100.00;97900.00;5092419;27;20058;-51
2021/11/02 01:07:02;;;;;;;6.65;1.08;;;;;;;7.13;100.00;97905.00;5092096;27;20383;-51
2021/11/02 01:10:12;;;;;;;0.52;0.40;;;;;;;7.14;100.00;97903.78;5092098;27;20196;-51
2021/11/02 01:13:16;;;;;;;2.88;0.85;;;;;;;7.20;100.00;97909.31;5092571;27;20755;-52
2021/11/02 01:16:24;;;;;;;0.75;0.68;;;;;;;7.23;100.00;97903.53;5093682;27;20132;-51
2021/11/02 01:19:27;;;;;;;3.33;0.65;;;;;;;7.23;100.00;97902.78;5092640;27;20439;-51
2021/11/02 01:22:30;;;;;;;0.30;0.30;;;;;;;7.24;100.00;97910.56;5092716;27;20069;-51
2021/11/02 01:25:35;;;;;;;0.65;0.65;;;;;;;7.23;100.00;97909.09;5092206;27;20085;-51
2021/11/02 01:28:38;;;;;;;0.95;0.63;;;;;;;7.25;100.00;97906.56;5092303;28;20402;-51
2021/11/02 01:31:43;;;;;;;0.20;0.20;;;;;;;7.29;100.00;97907.06;5091452;28;20037;-51
2021/11/02 01:34:47;;;;;;;0.57;0.40;;;;;;;7.35;100.00;97910.59;5091210;28;20488;-52
2021/11/02 01:37:50;;;;;;;0.45;0.45;;;;;;;7.44;100.00;97913.13;5090754;28;20038;-52
2021/11/02 01:40:55;;;;;;;0.50;0.50;;;;;;;7.43;100.00;97905.31;5091902;28;20046;-51
2021/11/02 01:43:59;;;;;;;0.25;0.25;;;;;;;7.46;100.00;97916.16;5091955;28;20115;-51
2021/11/02 01:47:04;;;;;;;2.28;0.93;;;;;;;7.54;100.00;97917.16;5092640;28;20838;-51
2021/11/02 01:50:08;;;;;;;0.20;0.20;;;;;;;7.61;100.00;97910.38;5092299;28;20069;-51
2021/11/02 01:53:11;;;;;;;0.73;0.73;;;;;;;7.50;100.00;97904.81;5093760;28;20691;-51
2021/11/02 01:56:14;;;;;;;0.40;0.40;;;;;;;7.36;100.00;97905.81;5094013;28;20050;-51
2021/11/02 01:59:22;;;;;;;0.32;0.28;;;;;;;7.37;100.00;97902.56;5093754;28;20067;-51
2021/11/02 02:02:34;;;;;;;1.33;0.68;;;;;;;7.46;100.00;97910.63;5093594;28;20042;-51
2021/11/02 02:05:37;;;;;;;0.20;0.20;;;;;;;7.50;100.00;97900.06;5093796;28;20782;-52
2021/11/02 02:08:47;;;;;;;1.05;0.68;;;;;;;7.37;100.00;97905.31;5096588;28;20137;-51
2021/11/02 02:12:21;;;;;;;0.63;0.20;;;;;;;7.29;100.00;97907.06;5098408;28;20042;-51
2021/11/02 02:15:39;;;;;;;0.40;0.40;;;;;;;7.39;100.00;97904.81;5096134;28;21014;-51
2021/11/02 02:18:52;;;;;;;1.27;0.57;;;;;;;7.42;100.00;97895.50;5094070;28;20054;-51
2021/11/02 02:22:25;;;;;;;0.30;0.30;;;;;;;7.40;100.00;97892.50;5092890;28;20462;-51
2021/11/02 02:25:43;;;;;;;0.43;0.43;;;;;;;7.36;100.00;97898.25;5092651;27;20346;-51
2021/11/02 02:28:52;;;;;;;2.67;0.57;;;;;;;7.30;100.00;97885.66;5094229;28;20104;-51
2021/11/02 02:31:57;;;;;;;0.82;0.60;;;;;;;7.27;100.00;97890.22;5094468;27;20058;-51
2021/11/02 02:35:03;;;;;;;0.50;0.50;;;;;;;7.24;100.00;97898.75;5083904;27;20034;-51
2021/11/02 02:38:08;;;;;;;4.78;0.38;;;;;;;7.24;100.00;97893.97;5096652;27;20247;-51
2021/11/02 02:41:12;;;;;;;0.40;0.40;;;;;;;7.21;100.00;97894.22;5096842;27;20603;-51
2021/11/02 02:44:16;;;;;;;1.27;0.70;;;;;;;7.19;100.00;97891.94;5097497;27;20223;-51
2021/11/02 02:47:20;;;;;;;0.63;0.40;;;;;;;7.19;100.00;97894.69;5096040;27;20122;-51
2021/11/02 02:50:26;;;;;;;0.43;0.43;;;;;;;7.16;100.00;97892.19;5094673;27;20720;-51
2021/11/02 02:53:30;;;;;;;0.35;0.35;;;;;;;7.14;100.00;97887.16;5094858;27;20294;-51
2021/11/02 02:56:34;;;;;;;0.68;0.60;;;;;;;7.14;100.00;97889.94;5095320;27;20038;-51
2021/11/02 02:59:39;;;;;;;0.40;0.40;;;;;;;7.16;100.00;97892.19;5094614;27;20095;-51
2021/11/02 03:02:44;;;;;;;0.43;0.43;;;;;;;7.22;100.00;97892.94;5094493;27;20153;-51
2021/11/02 03:05:47;;;;;;;0.13;0.13;;;;;;;7.21;100.00;97894.22;5094271;27;20388;-51
2021/11/02 03:08:52;;;;;;;2.05;0.95;;;;;;;7.10;100.00;97886.66;5095636;27;20066;-51
2021/11/02 03:11:56;;;;;;;1.35;0.80;;;;;;;7.04;100.00;97891.41;5097834;27;20663;-51
2021/11/02 03:49:01;;;;;;;0.32;0.32;;;;;;;6.80;100.00;97910.44;5115526;28;20051;-51
2021/11/02 03:55:20;;;;;;;0.43;0.43;;;;;;;6.71;100.00;97910.66;5115366;28;20051;-51
2021/11/02 03:58:31;;;;;;;1.25;0.98;;;;;;;6.74;100.00;97909.66;5102342;28;20046;-51
2021/11/02 05:12:12;;;;;;;1.13;0.88;;;;;;;4.69;100.00;97951.31;5092041;28;20059;-51
2021/11/02 05:56:20;;;;;;;4.90;0.80;;;;;;;4.34;100.00;97965.91;5112959;28;20046;-51
2021/11/02 06:28:33;;;;;;;51.42;7.90;;;;;;;3.85;100.00;97974.91;5136149;27;20038;-50
2021/11/02 06:31:40;;;;;;;51.38;12.07;;;;;;;3.87;100.00;97976.44;5136358;27;20444;-51
2021/11/02 07:18:22;;;;;;;11.55;2.33;;;;;;;3.28;100.00;98000.41;5093873;28;20039;-51
2021/11/02 08:47:17;;;;;;;2.80;1.92;;;;;;;4.32;100.00;98056.53;5133332;27;20066;-51
2021/11/02 08:50:21;;;;;;;9.27;2.72;;;;;;;4.46;100.00;98061.25;5132757;27;20104;-51
2021/11/02 08:53:26;;;;;;;13.52;2.15;;;;;;;4.65;100.00;98056.28;5133147;27;20430;-52
2021/11/02 08:56:29;;;;;;;18.50;2.83;;;;;;;4.69;100.00;98053.31;5132456;27;20445;-51
2021/11/02 08:59:33;;;;;;;9.27;2.90;;;;;;;4.79;100.00;98060.22;5132180;27;20049;-51
2021/11/02 09:02:41;;;;;;;14.48;3.10;;;;;;;4.92;100.00;98052.41;5131957;27;20436;-52
2021/11/02 09:05:48;;;;;;;4.82;3.10;;;;;;;4.85;100.00;98063.84;5132119;27;20043;-51
2021/11/02 09:08:56;;;;;;;8.25;3.13;;;;;;;4.76;100.00;98055.69;5132970;27;20085;-51
2021/11/02 09:12:02;;;;;;;2.70;2.15;;;;;;;4.90;100.00;98065.91;5120405;27;20038;-51
2021/11/02 09:15:05;;;;;;;2.75;1.92;;;;;;;4.93;100.00;98053.94;5132288;27;20130;-51
2021/11/02 09:18:12;;;;;;;4.05;2.25;;;;;;;4.98;100.00;98064.28;5133316;27;20065;-51
2021/11/02 09:21:15;;;;;;;10.15;2.35;;;;;;;4.96;100.00;98058.50;5123587;27;20089;-51
2021/11/02 09:24:19;;;;;;;16.88;3.22;;;;;;;5.06;100.00;98052.34;5112779;28;20129;-51
2021/11/02 09:27:24;;;;;;;5.88;3.50;;;;;;;5.15;100.00;98070.78;5112719;28;20375;-51
2021/11/02 09:30:28;;;;;;;7.05;3.45;;;;;;;5.33;100.00;98064.97;5112730;28;20502;-51
2021/11/02 09:33:34;;;;;;;8.88;2.95;;;;;;;5.58;100.00;98067.03;5113067;28;20050;-51
2021/11/02 09:36:59;;;;;;;1.63;1.52;;;;;;;5.78;100.00;98066.97;5112853;28;20113;-51
2021/11/02 09:40:30;;;;;;;4.90;1.33;;;;;;;5.97;100.00;98061.94;5112990;28;20089;-51
2021/11/02 09:43:38;;;;;;;3.33;2.28;;;;;;;6.10;100.00;98065.84;5104263;28;20081;-51
2021/11/02 09:46:47;;;;;;;3.92;3.10;;;;;;;6.17;100.00;98056.34;5117464;28;20379;-51
2021/11/02 09:50:37;;;;;;;13.70;3.15;;;;;;;6.19;100.00;98061.38;5117047;28;20088;-51
2021/11/02 09:53:45;;;;;;;15.82;3.25;;;;;;;6.73;100.00;98057.53;5094329;28;20039;-51
2021/11/02 09:57:13;;;;;;;12.10;2.97;;;;;;;6.95;100.00;98054.13;5116818;28;20477;-51
2021/11/02 10:00:42;;;;;;;10.60;2.40;;;;;;;7.28;100.00;98055.06;5116699;28;20047;-51
2021/11/02 10:04:05;;;;;;;8.60;2.20;;;;;;;7.30;100.00;98049.78;5104218;28;20236;-51
2021/11/02 10:07:18;;;;;;;3.25;2.10;;;;;;;7.49;100.00;98048.06;5116522;28;20085;-51
2021/11/02 10:10:25;;;;;;;4.53;1.25;;;;;;;7.51;100.00;98053.13;5116721;28;20404;-51
2021/11/02 10:13:39;;;;;;;2.50;1.20;;;;;;;7.64;100.00;98054.16;5116755;28;20059;-47
2021/11/02 10:17:04;;;;;;;4.45;1.30;;;;;;;7.61;100.00;98055.19;5116620;28;20138;-47
2021/11/02 10:20:10;;;;;;;2.35;2.15;;;;;;;7.73;100.00;98053.22;5116422;28;20042;-47
2021/11/02 10:23:47;;;;;;;2.50;0.85;;;;;;;7.81;100.00;98062.53;5137092;27;20050;-48
2021/11/02 10:27:02;;;;;;;1.77;1.35;;;;;;;7.95;100.00;98049.72;5136701;27;20081;-48
2021/11/02 10:30:25;;;;;;;3.65;2.22;;;;;;;8.22;100.00;98060.09;5136458;27;20069;-48
2021/11/02 10:33:34;;;;;;;0.40;0.40;;;;;;;8.36;100.00;98057.09;5136906;27;20050;-48
2021/11/02 10:37:03;;;;;;;2.53;1.05;;;;;;;8.46;100.00;98060.38;5136655;27;20049;-48
2021/11/02 10:40:10;;;;;;;2.05;1.20;;;;;;;8.51;100.00;98062.38;5137037;27;20050;-48
2021/11/02 10:43:41;;;;;;;0.60;0.60;;;;;;;8.56;100.00;98072.72;5137075;27;20091;-48
2021/11/02 10:46:57;;;;;;;0.57;0.57;;;;;;;8.84;100.00;98067.91;5136344;27;20042;-48
2021/11/02 10:50:11;;;;;;;0.65;0.40;;;;;;;9.01;100.00;98070.63;5136483;27;20126;-48
2021/11/02 10:53:29;;;;;;;0.25;0.25;;;;;;;9.21;100.00;98066.81;5135698;27;20050;-48
2021/11/02 10:56:38;;;;;;;0.50;0.50;;;;;;;9.16;100.00;98069.09;5136838;27;20042;-48
2021/11/02 10:59:48;;;;;;;0.85;0.85;;;;;;;9.36;100.00;98073.56;5136112;27;20096;-47
2021/11/02 11:02:55;;;;;;;1.20;1.10;;;;;;;9.51;100.00;98070.47;5123769;27;20066;-48
2021/11/02 11:06:02;;;;;;;0.70;0.70;;;;;;;9.74;100.00;98074.69;5123198;27;20041;-48
2021/11/02 11:09:11;;;;;;;14.25;0.80;;;;;;;9.82;100.00;98068.06;5136002;27;20096;-48
2021/11/02 11:12:14;;;;;;;0.77;0.50;;;;;;;10.05;100.00;98070.72;5135485;27;20058;-47
2021/11/02 11:15:18;;;;;;;0.40;0.25;;;;;;;10.22;100.00;98072.13;5135452;27;20042;-48
2021/11/02 11:18:26;;;;;;;0.40;0.40;;;;;;;10.37;100.00;98080.88;5136069;27;20066;-52
2021/11/02 11:21:34;;;;;;;1.73;0.82;;;;;;;10.63;100.00;98069.31;5123961;27;20441;-51
2021/11/02 11:25:12;;;;;;;0.30;0.30;;;;;;;10.81;100.00;98079.00;5115317;28;20092;-48
2021/11/02 11:28:18;;;;;;;0.30;0.30;;;;;;;10.93;100.00;98075.63;5115207;28;20043;-48
2021/11/02 11:31:23;;;;;;;3.33;0.65;;;;;;;11.08;100.00;98078.00;5115253;28;20156;-51
2021/11/02 11:34:32;;;;;;;0.38;0.38;;;;;;;11.39;100.00;98071.84;5115190;28;20101;-51
2021/11/02 11:37:39;;;;;;;3.05;0.40;;;;;;;11.59;100.00;98074.13;5114958;28;20066;-51
2021/11/02 11:40:45;;;;;;;3.92;1.00;;;;;;;11.68;100.00;98076.56;5114873;28;20043;-51
2021/11/02 11:43:49;;;;;;;0.10;0.10;;;;;;;11.69;100.00;98077.34;5102584;28;20116;-51
2021/11/02 11:47:01;;;;;;;1.88;0.60;;;;;;;11.80;100.00;98082.78;5114563;28;20043;-51
2021/11/02 11:50:25;;;;;;;0.70;0.70;;;;;;;11.74;100.00;98074.47;5114902;28;20054;-51
2021/11/02 11:53:31;;;;;;;1.15;1.02;;;;;;;11.82;100.00;98075.41;5114383;28;20448;-52
2021/11/02 11:56:37;;;;;;;0.85;0.75;;;;;;;10.91;100.00;98077.41;5102636;28;20498;-51
2021/11/02 11:59:40;;;;;;;3.28;0.57;;;;;;;11.03;100.00;98087.91;5114594;28;20078;-48
2021/11/02 12:03:01;;;;;;;0.73;0.38;;;;;;;11.50;100.00;98080.06;5101619;28;20038;-48
2021/11/02 12:06:16;;;;;;;1.15;0.85;;;;;;;11.47;100.00;98080.34;5112889;28;21053;-48
2021/11/02 12:09:22;;;;;;;0.60;0.60;;;;;;;11.85;100.00;98073.56;5113694;28;20050;-47
2021/11/02 12:12:25;;;;;;;0.50;0.40;;;;;;;12.40;100.00;98069.97;5114012;28;20050;-48
2021/11/02 12:15:44;;;;;;;1.70;0.50;;;;;;;12.58;100.00;98068.44;5114373;28;20062;-48
2021/11/02 12:18:55;;;;;;;0.43;0.35;;;;;;;12.49;100.00;98068.84;5113458;28;20047;-48
2021/11/02 12:22:04;;;;;;;0.55;0.50;;;;;;;12.40;100.00;98072.78;5129206;27;20058;-48
2021/11/02 12:25:10;;;;;;;1.13;0.40;;;;;;;12.29;100.00;98072.19;5121548;27;20082;-48
2021/11/02 12:28:28;;;;;;;1.05;0.47;;;;;;;12.10;100.00;98075.75;5134092;27;20507;-47
2021/11/02 12:31:31;;;;;;;1.27;0.40;;;;;;;11.94;100.00;98062.78;5133910;27;20414;-47
2021/11/02 12:34:51;;;;;;;1.95;0.60;;;;;;;11.76;100.00;98076.75;5133242;27;20095;-47
2021/11/02 12:37:58;;;;;;;0.53;0.53;;;;;;;11.68;100.00;98068.22;5133982;27;20402;-47
2021/11/02 12:41:13;;;;;;;1.67;0.50;;;;;;;12.05;100.00;98071.00;5133389;27;20046;-47
2021/11/02 12:44:23;;;;;;;0.28;0.28;;;;;;;11.95;100.00;98061.50;5134248;27;20091;-51
2021/11/02 12:47:27;;;;;;;2.72;0.60;;;;;;;11.81;100.00;98053.59;5133806;27;20062;-50
2021/11/02 12:50:36;;;;;;;14.35;0.68;;;;;;;11.75;100.00;98059.25;5133591;27;20084;-50
2021/11/02 12:53:42;;;;;;;1.70;0.65;;;;;;;11.83;100.00;98064.97;5133395;27;20122;-51
2021/11/02 12:56:52;;;;;;;0.50;0.50;;;;;;;11.86;100.00;98058.34;5133232;27;20096;-51
2021/11/02 12:59:59;;;;;;;6.03;1.10;;;;;;;11.95;100.00;98061.50;5133412;27;20045;-51
2021/11/02 13:03:08;;;;;;;0.30;0.30;;;;;;;11.28;100.00;98066.41;5133209;27;20058;-50
2021/11/02 13:06:13;;;;;;;0.40;0.40;;;;;;;10.87;100.00;98065.81;5132644;27;20038;-50
2021/11/02 13:09:21;;;;;;;1.55;0.40;;;;;;;10.77;100.00;98068.16;5133081;27;20470;-47
2021/11/02 13:12:26;;;;;;;0.50;0.35;;;;;;;11.04;100.00;98066.41;5133230;27;20430;-47
2021/11/02 13:15:31;;;;;;;8.30;0.55;;;;;;;9.74;100.00;98074.69;5133300;27;20151;-47
2021/11/02 13:18:39;;;;;;;0.50;0.50;;;;;;;9.51;100.00;98079.56;5132931;27;20046;-47
2021/11/02 13:21:42;;;;;;;1.40;0.55;;;;;;;9.78;100.00;98075.94;5119647;27;20446;-47
2021/11/02 13:24:58;;;;;;;3.80;0.77;;;;;;;10.04;100.00;98072.75;5112314;28;20057;-47
2021/11/02 13:28:01;;;;;;;0.30;0.30;;;;;;;10.24;100.00;98069.63;5116053;27;20437;-47
2021/11/02 13:31:04;;;;;;;0.85;0.45;;;;;;;10.42;100.00;98070.97;5132085;27;20068;-47
2021/11/02 13:34:14;;;;;;;8.75;1.42;;;;;;;10.72;100.00;98065.44;5132050;28;20038;-47
2021/11/02 13:37:18;;;;;;;0.20;0.20;;;;;;;10.65;100.00;98061.19;5132069;28;20130;-48
2021/11/02 13:40:22;;;;;;;0.95;0.20;;;;;;;10.56;100.00;98067.09;5132153;28;20047;-47
2021/11/02 13:43:41;;;;;;;11.43;1.70;;;;;;;10.48;100.00;98061.31;5132614;28;20083;-47
2021/11/02 13:46:44;;;;;;;3.50;0.50;;;;;;;10.20;100.00;98068.38;5132794;28;20096;-47
2021/11/02 13:49:47;;;;;;;0.50;0.22;;;;;;;10.09;100.00;98069.16;5133186;28;20528;-47
2021/11/02 13:52:54;;;;;;;1.25;0.80;;;;;;;10.37;100.00;98064.19;5133008;28;20050;-47
2021/11/02 13:55:57;;;;;;;1.55;0.52;;;;;;;10.97;100.00;98058.59;5132904;28;20046;-47
2021/11/02 13:59:02;;;;;;;2.95;0.52;;;;;;;11.20;100.00;98054.31;5132192;28;20050;-47
2021/11/02 14:02:05;;;;;;;5.07;0.57;;;;;;;10.60;100.00;98062.00;5132911;28;20043;-47
2021/11/02 14:05:10;;;;;;;6.30;0.47;;;;;;;10.64;100.00;98060.44;5119623;28;20449;-47
2021/11/02 14:08:21;;;;;;;0.32;0.17;;;;;;;11.99;100.00;98061.22;5132497;28;20062;-47
2021/11/02 14:11:31;;;;;;;0.40;0.40;;;;;;;11.01;100.00;98059.06;5119678;28;20077;-47
2021/11/02 14:14:35;;;;;;;0.30;0.30;;;;;;;11.45;100.00;98058.59;5133045;28;20116;-47
2021/11/02 14:18:00;;;;;;;4.80;1.00;;;;;;;11.64;100.00;98064.94;5132801;28;20062;-47
2021/11/02 14:21:03;;;;;;;0.55;0.40;;;;;;;11.70;100.00;98059.31;5132911;28;20127;-47
2021/11/02 14:24:06;;;;;;;1.60;0.65;;;;;;;11.60;100.00;98060.94;5132396;28;20095;-45
2021/11/02 14:27:21;;;;;;;0.73;0.68;;;;;;;11.66;100.00;98056.81;5132765;28;20494;-45
2021/11/02 14:30:33;;;;;;;0.20;0.20;;;;;;;11.54;100.00;98060.25;5135572;27;20095;-48
2021/11/02 14:33:45;;;;;;;0.30;0.30;;;;;;;11.89;100.00;98063.63;5136815;27;20095;-47
2021/11/02 14:36:49;;;;;;;0.20;0.10;;;;;;;12.18;100.00;98056.34;5136584;27;20091;-48
2021/11/02 14:39:57;;;;;;;1.13;0.65;;;;;;;12.30;100.00;98051.38;5136195;27;20054;-48
2021/11/02 14:43:13;;;;;;;0.45;0.45;;;;;;;12.50;100.00;98059.91;5136347;27;20498;-48
2021/11/02 14:46:20;;;;;;;0.40;0.40;;;;;;;12.35;100.00;98048.47;5136141;27;20045;-48
2021/11/02 14:49:30;;;;;;;0.30;0.30;;;;;;;12.50;100.00;98048.00;5135236;27;20135;-48
2021/11/02 14:52:36;;;;;;;3.95;0.45;;;;;;;12.83;100.00;98053.03;5134625;27;20046;-48
2021/11/02 14:55:52;;;;;;;1.60;0.35;;;;;;;12.96;100.00;98058.63;5135888;27;20042;-45
2021/11/02 14:58:59;;;;;;;0.30;0.30;;;;;;;12.77;100.00;98055.16;5135890;27;20111;-54
2021/11/02 15:02:02;;;;;;;0.50;0.35;;;;;;;12.93;100.00;98054.09;5135756;27;20119;-56
2021/11/02 15:05:10;;;;;;;0.20;0.10;;;;;;;13.07;100.00;98061.25;5135292;27;20093;-56
2021/11/02 15:08:15;;;;;;;0.28;0.28;;;;;;;12.72;100.00;98059.56;5134510;27;20054;-56
2021/11/02 15:11:18;;;;;;;1.27;0.25;;;;;;;12.70;100.00;98056.53;5134472;27;20079;-55
2021/11/02 15:14:25;;;;;;;0.43;0.32;;;;;;;12.51;100.00;98055.84;5134552;27;20387;-57
2021/11/02 15:17:28;;;;;;;0.20;0.17;;;;;;;12.55;100.00;98058.31;5134405;27;20084;-55
2021/11/02 15:20:31;;;;;;;5.75;0.65;;;;;;;12.77;100.00;98052.38;5134606;27;20038;-56
2021/11/02 15:23:42;;;;;;;1.77;0.63;;;;;;;12.91;100.00;98065.06;5134501;27;20054;-45
2021/11/02 15:26:51;;;;;;;12.25;1.63;;;;;;;12.77;100.00;98066.34;5134999;27;20096;-45
2021/11/02 15:29:59;;;;;;;5.00;0.40;;;;;;;13.15;100.00;98064.91;5134963;27;20518;-46
2021/11/02 15:33:02;;;;;;;0.20;0.20;;;;;;;13.10;100.00;98060.19;5134907;27;20084;-46
2021/11/02 15:36:20;;;;;;;2.92;1.38;;;;;;;13.37;100.00;98067.28;5134811;27;20108;-45
2021/11/02 15:39:25;;;;;;;0.10;0.10;;;;;;;13.48;100.00;98071.91;5134838;27;20098;-48
2021/11/02 15:42:30;;;;;;;0.13;0.13;;;;;;;12.91;100.00;98070.66;5135193;27;20061;-46
2021/11/02 15:45:39;;;;;;;0.40;0.40;;;;;;;13.30;100.00;98070.72;5135460;27;20046;-46
2021/11/02 15:48:42;;;;;;;1.42;0.47;;;;;;;13.32;100.00;98081.38;5135332;27;20033;-45
2021/11/02 15:51:57;;;;;;;3.63;0.50;;;;;;;13.49;100.00;98084.59;5134933;27;20054;-46
2021/11/02 15:55:04;;;;;;;0.50;0.50;;;;;;;13.31;100.00;98086.22;5134704;27;20077;-45
2021/11/02 15:58:09;;;;;;;3.20;0.50;;;;;;;13.03;100.00;98087.97;5135237;27;20078;-45
2021/11/02 16:01:12;;;;;;;1.45;0.55;;;;;;;11.61;100.00;98093.88;5134294;27;20050;-46
2021/11/02 16:04:19;;;;;;;0.47;0.45;;;;;;;11.90;100.00;98092.25;5121924;27;20041;-46
2021/11/02 16:07:30;;;;;;;4.93;0.40;;;;;;;12.03;100.00;98095.91;5134979;27;20051;-46
2021/11/02 16:10:34;;;;;;;1.30;0.90;;;;;;;11.97;100.00;98095.22;5134192;27;20148;-47
2021/11/02 16:13:41;;;;;;;0.63;0.60;;;;;;;12.12;100.00;98092.72;5133595;27;20050;-48
2021/11/02 16:16:47;;;;;;;3.35;0.85;;;;;;;11.91;100.00;98100.09;5123942;27;20038;-48
2021/11/02 16:19:52;;;;;;;4.13;0.60;;;;;;;11.74;100.00;98110.72;5133901;27;20046;-48
2021/11/02 16:22:58;;;;;;;0.60;0.60;;;;;;;11.87;100.00;98104.47;5133481;27;20065;-47
2021/11/02 16:26:16;;;;;;;0.70;0.70;;;;;;;11.64;100.00;98103.22;5133524;27;20042;-47
2021/11/02 16:29:26;;;;;;;3.15;0.55;;;;;;;11.55;100.00;98107.13;5122289;27;20080;-48
2021/11/02 16:32:29;;;;;;;3.65;0.50;;;;;;;11.55;100.00;98107.13;5113891;28;20457;-48
2021/11/02 16:35:36;;;;;;;1.25;0.28;;;;;;;11.21;100.00;98117.88;5113139;28;20078;-48
2021/11/02 16:38:39;;;;;;;0.50;0.50;;;;;;;10.62;100.00;98123.47;5113687;28;20038;-48
2021/11/02 16:41:42;;;;;;;1.58;0.90;;;;;;;9.70;100.00;98121.47;5113350;28;20042;-47
2021/11/02 16:44:45;;;;;;;1.30;0.52;;;;;;;10.22;100.00;98124.25;5114092;28;20050;-47
2021/11/02 16:47:56;;;;;;;0.57;0.40;;;;;;;10.37;100.00;98139.31;5113363;28;20096;-47
2021/11/02 16:50:59;;;;;;;;;;;;;;;9.99;100.00;98139.50;5113301;28;20064;-48
2021/11/02 16:54:11;;;;;;;0.30;0.28;;;;;;;10.02;100.00;98139.25;5113610;28;20284;-47
2021/11/02 16:57:21;;;;;;;0.60;0.60;;;;;;;9.84;100.00;98139.84;5089463;28;20101;-48
2021/11/02 17:00:28;;;;;;;0.80;0.80;;;;;;;9.73;100.00;98148.97;5113002;28;20439;-47
2021/11/02 17:03:31;;;;;;;0.57;0.57;;;;;;;8.68;100.00;98146.41;5112869;27;20055;-47
2021/11/02 17:06:36;;;;;;;1.00;0.85;;;;;;;9.18;100.00;98148.38;5113003;28;20047;-47
2021/11/02 17:09:40;;;;;;;7.63;1.58;;;;;;;8.91;100.00;98155.47;5113523;28;20116;-47
2021/11/02 17:12:49;;;;;;;18.25;1.17;;;;;;;8.96;100.00;98154.72;5113067;28;20042;-47
2021/11/02 17:16:10;;;;;;;10.32;2.55;;;;;;;8.72;100.00;98166.31;5099604;28;20058;-47
2021/11/02 17:19:13;;;;;;;0.73;0.73;;;;;;;8.71;100.00;98164.78;5112804;28;20043;-47
2021/11/02 17:22:17;;;;;;;7.68;0.95;;;;;;;8.94;100.00;98160.00;5130952;27;20038;-48
2021/11/02 17:25:22;;;;;;;1.83;1.58;;;;;;;8.88;100.00;98173.88;5133546;27;20046;-47
2021/11/02 17:28:26;;;;;;;0.60;0.60;;;;;;;8.83;100.00;98171.88;5120788;27;20043;-47
2021/11/02 17:31:37;;;;;;;1.80;0.90;;;;;;;8.72;100.00;98171.88;5133176;27;20547;-47
2021/11/02 17:34:48;;;;;;;0.73;0.73;;;;;;;8.67;100.00;98180.19;5131496;28;20042;-47
2021/11/02 17:37:57;;;;;;;2.75;1.88;;;;;;;8.75;100.00;98184.72;5100935;28;20100;-47
2021/11/02 17:41:02;;;;;;;4.22;1.67;;;;;;;8.27;100.00;98190.44;5112338;28;20510;-48
2021/11/02 17:44:05;;;;;;;1.48;1.38;;;;;;;8.33;100.00;98190.47;5112198;28;20094;-48
2021/11/02 17:47:13;;;;;;;5.05;1.63;;;;;;;8.21;100.00;98188.88;5111761;28;20088;-47
2021/11/02 17:50:18;;;;;;;2.42;1.50;;;;;;;8.28;100.00;98196.75;5112731;28;20046;-47
2021/11/02 17:53:22;;;;;;;2.30;1.10;;;;;;;8.39;100.00;98199.56;5112707;28;20054;-47
2021/11/02 17:56:25;;;;;;;0.90;0.90;;;;;;;8.39;100.00;98200.31;5112780;28;20050;-47
2021/11/02 17:59:30;;;;;;;10.48;1.25;;;;;;;8.16;100.00;98198.72;5100208;28;20054;-47
2021/11/02 18:02:33;;;;;;;2.63;1.38;;;;;;;8.03;100.00;98212.28;5112844;28;20108;-48
2021/11/02 18:05:37;;;;;;;2.38;1.08;;;;;;;8.02;100.00;98210.00;5116516;28;20127;-47
2021/11/02 18:08:46;;;;;;;2.38;1.15;;;;;;;8.13;100.00;98204.50;5116779;28;20047;-47
2021/11/02 18:11:51;;;;;;;4.00;1.65;;;;;;;8.04;100.00;98207.47;5116398;28;20100;-48
2021/11/02 18:14:54;;;;;;;5.05;2.13;;;;;;;8.20;100.00;98218.66;5116880;28;20055;-47
2021/11/02 18:17:57;;;;;;;1.88;1.73;;;;;;;8.19;100.00;98217.13;5133291;27;20387;-47
2021/11/02 18:21:01;;;;;;;2.58;1.42;;;;;;;8.16;100.00;98217.38;5137175;27;20126;-47
2021/11/02 18:24:06;;;;;;;7.07;1.95;;;;;;;8.32;100.00;98222.22;5136790;27;20454;-47
2021/11/02 18:27:09;;;;;;;12.77;3.38;;;;;;;8.36;100.00;98222.72;5137039;27;20068;-47
2021/11/02 18:30:14;;;;;;;6.63;2.60;;;;;;;8.50;100.00;98227.31;5136804;27;20062;-47
2021/11/02 18:33:17;;;;;;;2.65;2.45;;;;;;;8.53;100.00;98231.88;5136552;27;20045;-48
2021/11/02 18:36:22;;;;;;;5.72;1.85;;;;;;;8.54;100.00;98233.38;5127732;27;20157;-47
2021/11/02 18:39:25;;;;;;;6.15;2.65;;;;;;;8.53;100.00;98237.44;5115392;27;20044;-47
2021/11/02 18:42:28;;;;;;;2.75;0.98;;;;;;;8.27;100.00;98247.94;5103379;28;20039;-47
2021/11/02 18:45:32;;;;;;;5.07;1.83;;;;;;;8.59;100.00;98249.28;5115986;28;20078;-47
2021/11/02 18:48:37;;;;;;;4.43;2.38;;;;;;;8.31;100.00;98254.00;5116054;28;20567;-47
2021/11/02 18:51:41;;;;;;;5.25;1.15;;;;;;;8.43;100.00;98247.22;5115663;28;20522;-47
2021/11/02 18:54:45;;;;;;;5.70;2.10;;;;;;;8.54;100.00;98249.25;5103507;27;20051;-48
2021/11/02 18:57:48;;;;;;;3.35;2.08;;;;;;;8.58;100.00;98245.00;5136105;27;20117;-47
2021/11/02 19:00:52;;;;;;;9.88;3.58;;;;;;;8.52;100.00;98246.25;5136073;27;20184;-47
2021/11/02 19:03:57;;;;;;;5.22;2.47;;;;;;;8.50;100.00;98249.53;5135864;27;20142;-47
2021/11/02 19:07:01;;;;;;;17.55;4.15;;;;;;;8.45;100.00;98252.25;5135823;27;20555;-47
2021/11/02 19:10:06;;;;;;;13.65;4.15;;;;;;;8.30;100.00;98252.47;5134715;27;20123;-47
2021/11/02 19:13:09;;;;;;;4.72;2.00;;;;;;;8.11;100.00;98262.47;5136010;27;20502;-47
2021/11/02 19:16:14;;;;;;;7.35;2.92;;;;;;;8.04;100.00;98262.91;5135001;27;20119;-47
2021/11/02 19:19:18;;;;;;;10.32;3.35;;;;;;;7.75;100.00;98263.28;5135749;27;20411;-47
2021/11/02 19:22:21;;;;;;;31.33;4.47;;;;;;;7.76;100.00;98260.00;5126471;27;20087;-47
2021/11/02 19:25:24;;;;;;;9.68;2.97;;;;;;;7.73;100.00;98255.47;5135123;27;20422;-47
2021/11/02 19:28:28;;;;;;;15.77;4.90;;;;;;;7.76;100.00;98262.00;5135831;27;20046;-47
2021/11/02 19:31:34;;;;;;;8.30;5.28;;;;;;;7.85;100.00;98267.34;5135840;27;20046;-47
2021/11/02 19:34:37;;;;;;;4.78;2.20;;;;;;;7.75;100.00;98263.28;5135436;27;20057;-48
2021/11/02 19:37:41;;;;;;;12.15;3.97;;;;;;;7.48;100.00;98261.84;5135563;27;20088;-48
2021/11/02 19:40:46;;;;;;;9.45;3.72;;;;;;;7.57;100.00;98269.97;5134616;27;20130;-47
2021/11/02 19:43:49;;;;;;;7.78;3.88;;;;;;;7.59;100.00;98279.31;5135290;27;20144;-48
2021/11/02 19:46:52;;;;;;;10.50;4.38;;;;;;;7.66;100.00;98280.84;5135008;27;20046;-47